Time;durP1;ratioP1;P1;durP2;ratioP2;P2;SDS_P1;SDS_P2;PMS_P1;PMS_P2;Temp;Humidity;BMP_temperature;BMP_pressure;BME280_temperature;BME280_humidity;BME280_pressure;Samples;Min_cycle;Max_cycle;Signal;HPM_P1;HPM_P2
2024/02/15 00:03:53;;;;;;;13.43;6.30;;;12.40;99.90;;;;;;20552216;28;20530;-41
2024/02/15 00:13:56;;;;;;;13.18;5.43;;;12.50;99.90;;;;;;20571778;28;20136;-41
2024/02/15 00:23:59;;;;;;;12.00;5.75;;;12.50;99.90;;;;;;20568450;28;20125;-41
2024/02/15 00:34:02;;;;;;;12.48;6.20;;;12.50;99.90;;;;;;20565733;28;20039;-41
2024/02/15 00:44:03;;;;;;;16.08;5.70;;;12.50;99.90;;;;;;20568034;28;24991;-41
2024/02/15 00:54:04;;;;;;;11.70;5.30;;;12.50;99.90;;;;;;20549031;28;20039;-41
2024/02/15 01:04:05;;;;;;;11.80;5.00;;;12.50;99.90;;;;;;20550293;28;20173;-41
2024/02/15 01:14:09;;;;;;;9.75;5.47;;;12.50;99.90;;;;;;20568731;28;20050;-41
2024/02/15 01:24:10;;;;;;;15.48;7.15;;;12.40;99.90;;;;;;20584318;28;20081;-41
2024/02/15 01:34:10;;;;;;;12.73;7.70;;;12.50;99.90;;;;;;20589215;28;20069;-41
2024/02/15 01:44:11;;;;;;;17.87;9.43;;;12.50;99.90;;;;;;20587884;28;20118;-41
2024/02/15 01:54:13;;;;;;;15.82;9.18;;;12.50;99.90;;;;;;20564610;28;20461;-41
2024/02/15 02:04:14;;;;;;;19.85;10.45;;;12.50;99.90;;;;;;20558509;28;20062;-41
2024/02/15 02:14:14;;;;;;;20.43;11.53;;;12.50;99.90;;;;;;20562247;28;20043;-41
2024/02/15 02:24:22;;;;;;;17.00;10.95;;;12.50;99.90;;;;;;20559912;28;20532;-41
2024/02/15 02:34:22;;;;;;;18.83;11.85;;;12.50;99.90;;;;;;20555336;28;20073;-41
2024/02/15 02:44:23;;;;;;;20.83;11.05;;;12.60;99.90;;;;;;20555110;28;20038;-41
2024/02/15 02:54:23;;;;;;;20.83;10.45;;;12.50;99.90;;;;;;20551996;28;20040;-41
2024/02/15 03:04:24;;;;;;;16.95;9.63;;;12.50;99.90;;;;;;20555126;28;20450;-41
2024/02/15 03:14:25;;;;;;;19.50;9.10;;;12.50;99.90;;;;;;20556445;28;20125;-41
2024/02/15 03:24:25;;;;;;;18.45;9.25;;;12.50;99.90;;;;;;20553067;28;20043;-41
2024/02/15 03:34:26;;;;;;;18.55;9.35;;;12.50;99.90;;;;;;20555158;28;20066;-41
2024/02/15 03:44:26;;;;;;;18.33;8.10;;;12.50;99.90;;;;;;20570335;28;20035;-41
2024/02/15 03:54:29;;;;;;;16.23;8.77;;;12.40;99.90;;;;;;20570239;28;20031;-41
2024/02/15 04:04:30;;;;;;;16.40;8.10;;;12.50;99.90;;;;;;20565577;28;20034;-41
2024/02/15 04:14:33;;;;;;;12.82;6.88;;;12.50;99.90;;;;;;20552749;28;20280;-41
2024/02/15 04:24:38;;;;;;;17.15;7.65;;;12.50;99.90;;;;;;20547078;28;20121;-41
2024/02/15 04:34:39;;;;;;;18.75;7.97;;;12.50;99.90;;;;;;20545982;28;20027;-41
2024/02/15 04:44:40;;;;;;;19.45;8.43;;;12.40;99.90;;;;;;20546116;28;20096;-41
2024/02/15 04:54:41;;;;;;;20.70;9.00;;;12.40;99.90;;;;;;20542767;28;20131;-41
2024/02/15 05:04:42;;;;;;;16.88;8.88;;;12.40;99.90;;;;;;20537433;28;20042;-41
2024/02/15 05:14:43;;;;;;;16.95;10.73;;;12.30;99.90;;;;;;20528778;28;20030;-41
2024/02/15 05:24:43;;;;;;;20.20;11.38;;;12.40;99.90;;;;;;20551848;28;20038;-41
2024/02/15 05:34:44;;;;;;;21.35;12.30;;;12.30;99.90;;;;;;20535611;28;20031;-41
2024/02/15 05:44:45;;;;;;;22.30;12.45;;;12.30;99.90;;;;;;20564477;28;20554;-41
2024/02/15 05:54:46;;;;;;;22.48;13.52;;;12.30;99.90;;;;;;20569728;28;20039;-41
2024/02/15 06:04:47;;;;;;;24.50;14.15;;;12.30;99.90;;;;;;20577417;28;20132;-42
2024/02/15 06:14:47;;;;;;;24.52;14.68;;;12.30;99.90;;;;;;20577133;28;20070;-41
2024/02/15 06:24:48;;;;;;;24.60;14.50;;;12.30;99.90;;;;;;20591830;28;20054;-41
2024/02/15 06:45:08;;;;;;;24.45;14.75;;;12.40;99.90;;;;;;20587767;28;20152;-41
2024/02/15 06:55:11;;;;;;;20.65;13.45;;;12.30;99.90;;;;;;20586613;28;20045;-41
2024/02/15 07:05:12;;;;;;;19.45;13.13;;;12.40;99.90;;;;;;20576786;28;20403;-42
2024/02/15 07:15:13;;;;;;;18.03;11.80;;;12.20;99.90;;;;;;20587975;28;20398;-42
2024/02/15 07:25:14;;;;;;;16.85;10.60;;;12.30;99.90;;;;;;20584282;28;20050;-42
2024/02/15 07:35:17;;;;;;;15.80;9.57;;;12.30;99.90;;;;;;20575706;28;20034;-43
2024/02/15 07:45:17;;;;;;;13.98;9.30;;;12.10;99.90;;;;;;20578681;28;20046;-42
2024/02/15 07:55:19;;;;;;;14.60;9.23;;;12.10;99.90;;;;;;20582933;28;20086;-42
2024/02/15 08:05:20;;;;;;;12.48;8.95;;;12.10;99.90;;;;;;20567212;28;20092;-42
2024/02/15 08:15:21;;;;;;;11.68;7.95;;;12.20;99.90;;;;;;20580675;28;20042;-43
2024/02/15 08:25:21;;;;;;;14.20;8.70;;;12.10;99.90;;;;;;20562231;28;20394;-43
2024/02/15 08:35:22;;;;;;;13.00;7.87;;;12.30;99.90;;;;;;20551228;28;20472;-43
2024/02/15 08:45:24;;;;;;;15.35;8.15;;;12.30;99.90;;;;;;20553241;28;20571;-43
2024/02/15 08:55:27;;;;;;;12.50;7.38;;;12.30;99.90;;;;;;20573426;28;20092;-44
2024/02/15 09:05:27;;;;;;;13.32;7.03;;;12.40;99.90;;;;;;20573676;28;20035;-44
2024/02/15 09:15:30;;;;;;;13.07;7.03;;;12.40;99.90;;;;;;20579156;28;20049;-44
2024/02/15 09:25:31;;;;;;;16.48;8.05;;;12.40;99.90;;;;;;20579609;28;20042;-43
2024/02/15 09:35:32;;;;;;;14.98;6.78;;;12.40;99.90;;;;;;20584614;28;20038;-43
2024/02/15 09:45:35;;;;;;;11.23;5.80;;;12.50;99.90;;;;;;20581055;28;20031;-43
2024/02/15 09:55:35;;;;;;;13.80;6.20;;;12.50;99.90;;;;;;20568071;28;20470;-43
2024/02/15 10:05:39;;;;;;;15.32;6.07;;;12.50;99.90;;;;;;20567517;28;20471;-43
2024/02/15 10:15:44;;;;;;;14.98;6.57;;;12.60;99.90;;;;;;20571869;28;20035;-43
2024/02/15 10:25:45;;;;;;;12.45;5.80;;;12.70;99.90;;;;;;20557816;28;20518;-42
2024/02/15 10:35:46;;;;;;;16.00;6.00;;;12.80;99.90;;;;;;20560942;28;20038;-42
2024/02/15 10:45:49;;;;;;;16.80;6.27;;;12.90;99.90;;;;;;20563641;28;20030;-42
2024/02/15 10:56:17;;;;;;;19.90;6.95;;;12.80;99.90;;;;;;20574170;28;20041;-42
2024/02/15 11:06:21;;;;;;;15.18;7.18;;;13.00;99.90;;;;;;20578854;28;20499;-42
2024/02/15 11:16:45;;;;;;;13.75;7.18;;;13.10;99.90;;;;;;20583694;28;20034;-42
2024/02/15 11:26:49;;;;;;;16.50;8.52;;;13.20;99.90;;;;;;20588991;28;20070;-42
2024/02/15 11:36:50;;;;;;;16.08;8.45;;;13.30;99.90;;;;;;20583998;28;20046;-42
2024/02/15 11:46:55;;;;;;;15.43;10.07;;;13.50;99.90;;;;;;20581705;28;20030;-42
2024/02/15 11:57:13;;;;;;;14.63;9.52;;;13.70;99.90;;;;;;20583331;28;20051;-42
2024/02/15 12:27:55;;;;;;;18.90;13.02;;;14.10;99.90;;;;;;20558417;28;20160;-42
2024/02/15 12:37:59;;;;;;;17.20;11.13;;;14.30;99.90;;;;;;20552782;28;20137;-42
2024/02/15 12:48:04;;;;;;;13.00;9.27;;;14.80;99.90;;;;;;20553125;28;20061;-42
2024/02/15 12:58:15;;;;;;;8.63;6.03;;;15.10;99.90;;;;;;20563029;28;20104;-42
2024/02/15 13:08:18;;;;;;;9.48;4.78;;;15.30;99.90;;;;;;20558151;28;20049;-42
2024/02/15 13:18:19;;;;;;;9.65;3.85;;;15.30;99.90;;;;;;20551242;28;20043;-42
2024/02/15 13:28:20;;;;;;;8.70;3.85;;;15.90;99.90;;;;;;20557134;28;20492;-42
2024/02/15 13:38:23;;;;;;;10.77;3.20;;;15.80;85.00;;;;;;20555413;28;20034;-42
2024/02/15 13:48:24;;;;;;;6.60;3.33;;;16.20;70.60;;;;;;20569447;28;20070;-42
2024/02/15 13:58:25;;;;;;;5.55;2.53;;;16.60;36.60;;;;;;20578870;28;20038;-42
2024/02/15 14:08:25;;;;;;;8.25;2.75;;;16.70;17.40;;;;;;20577060;28;20097;-42
2024/02/15 14:18:28;;;;;;;6.85;2.80;;;16.40;10.00;;;;;;20576387;28;20152;-42
2024/02/15 14:28:28;;;;;;;7.28;2.60;;;16.00;12.10;;;;;;20579505;28;20117;-42
2024/02/15 14:38:29;;;;;;;7.55;1.85;;;15.90;9.70;;;;;;20566536;28;20062;-42
2024/02/15 14:48:31;;;;;;;4.35;1.83;;;16.20;2.00;;;;;;20564426;28;20566;-42
2024/02/15 14:58:31;;;;;;;6.82;2.10;;;16.10;1.00;;;;;;20564946;28;20038;-42
2024/02/15 15:18:54;;;;;;;5.60;2.30;;;16.00;1.00;;;;;;20559362;28;20043;-41
2024/02/15 15:28:55;;;;;;;6.18;2.83;;;15.70;5.00;;;;;;20557717;28;20043;-42
2024/02/15 15:38:57;;;;;;;6.20;2.33;;;15.60;9.00;;;;;;20556410;28;20053;-42
2024/02/15 15:48:58;;;;;;;5.95;2.38;;;15.50;6.00;;;;;;20563805;28;20474;-42
2024/02/15 15:58:58;;;;;;;7.88;2.40;;;15.50;4.70;;;;;;20559705;28;20043;-43
2024/02/15 16:08:59;;;;;;;8.40;2.50;;;15.30;2.00;;;;;;20553522;28;20067;-41
2024/02/15 16:19:00;;;;;;;8.27;2.70;;;15.40;1.00;;;;;;20564279;28;20043;-42
2024/02/15 16:29:02;;;;;;;7.45;2.67;;;15.20;6.40;;;;;;20581893;28;20047;-42
2024/02/15 16:39:03;;;;;;;5.90;2.67;;;15.00;11.40;;;;;;20581355;28;20043;-42
2024/02/15 16:49:05;;;;;;;7.13;2.42;;;14.80;19.50;;;;;;20576793;28;20987;-41
2024/02/15 16:59:06;;;;;;;5.47;2.55;;;14.70;23.20;;;;;;20579689;28;20043;-42
2024/02/15 17:09:07;;;;;;;5.93;2.83;;;14.70;21.40;;;;;;20553890;28;20046;-41
2024/02/15 17:19:09;;;;;;;7.65;2.97;;;14.50;27.10;;;;;;20549084;28;20045;-42
2024/02/15 17:29:10;;;;;;;8.95;2.78;;;14.50;27.70;;;;;;20554225;28;20055;-42
2024/02/15 17:39:14;;;;;;;9.13;3.95;;;14.30;39.50;;;;;;20552032;28;20137;-43
2024/02/15 17:49:14;;;;;;;14.10;5.40;;;14.20;50.70;;;;;;20542257;28;20043;-42
2024/02/15 17:59:15;;;;;;;5.80;3.60;;;14.00;51.80;;;;;;20550771;28;20454;-42
2024/02/15 18:09:16;;;;;;;8.80;3.47;;;13.90;60.30;;;;;;20548227;28;20438;-42
2024/02/15 18:19:19;;;;;;;6.77;3.57;;;13.80;76.20;;;;;;20562184;28;20039;-42
2024/02/15 18:29:20;;;;;;;5.07;3.15;;;13.70;88.10;;;;;;20561365;28;20050;-42
2024/02/15 18:39:20;;;;;;;11.68;6.53;;;13.60;78.10;;;;;;20564730;28;20962;-42
2024/02/15 18:49:21;;;;;;;8.40;4.63;;;13.70;61.80;;;;;;20564938;28;20050;-42
2024/02/15 18:59:23;;;;;;;6.47;3.17;;;13.70;49.60;;;;;;20562535;28;20043;-42
2024/02/15 19:09:23;;;;;;;5.53;2.72;;;13.80;36.00;;;;;;20507642;28;20039;-42
2024/02/15 19:19:24;;;;;;;7.47;3.38;;;13.80;32.40;;;;;;20538121;28;20046;-42
2024/02/15 19:29:26;;;;;;;5.60;2.83;;;13.90;18.80;;;;;;20544953;28;21369;-42
2024/02/15 19:39:27;;;;;;;6.35;2.65;;;14.00;12.20;;;;;;20550685;28;20051;-42
2024/02/15 19:49:28;;;;;;;4.15;2.00;;;14.20;2.50;;;;;;20566040;28;20027;-42
2024/02/15 19:59:29;;;;;;;4.43;2.20;;;14.30;1.00;;;;;;20565436;28;20050;-42
2024/02/15 20:09:31;;;;;;;6.68;2.30;;;14.30;1.00;;;;;;20546827;28;20688;-42
2024/02/15 20:19:32;;;;;;;5.45;2.08;;;14.20;1.00;;;;;;20539932;28;20534;-42
2024/02/15 20:29:33;;;;;;;3.80;1.90;;;14.10;1.00;;;;;;20541412;28;20132;-42
2024/02/15 20:39:35;;;;;;;5.25;2.35;;;14.20;1.00;;;;;;20542565;28;20414;-42
2024/02/15 20:49:35;;;;;;;3.60;2.17;;;14.20;1.00;;;;;;20538451;28;20049;-42
2024/02/15 20:59:39;;;;;;;4.90;1.70;;;14.20;1.00;;;;;;20535210;28;20061;-42
2024/02/15 21:09:40;;;;;;;5.07;1.70;;;14.20;1.00;;;;;;20535553;28;20035;-42
2024/02/15 21:19:42;;;;;;;4.07;1.95;;;14.20;1.00;;;;;;20543002;28;20540;-42
2024/02/15 21:29:45;;;;;;;4.75;2.00;;;14.20;1.00;;;;;;20549560;28;20197;-42
2024/02/15 21:39:46;;;;;;;3.70;1.98;;;14.10;1.00;;;;;;20562307;28;20577;-42
2024/02/15 21:49:46;;;;;;;4.40;1.67;;;14.10;1.00;;;;;;20564056;28;20053;-42
2024/02/15 21:59:48;;;;;;;5.05;2.05;;;14.20;1.00;;;;;;20568151;28;20631;-42
2024/02/15 22:09:50;;;;;;;6.00;1.90;;;14.10;1.00;;;;;;20580354;28;20038;-42
2024/02/15 22:19:51;;;;;;;4.97;1.90;;;14.00;1.00;;;;;;20591490;28;20534;-42
2024/02/15 22:29:52;;;;;;;3.65;1.52;;;14.00;1.00;;;;;;20586756;28;20415;-42
2024/02/15 22:39:52;;;;;;;4.55;1.95;;;13.80;1.00;;;;;;20582765;28;20380;-42
2024/02/15 22:49:53;;;;;;;6.67;2.30;;;13.80;1.00;;;;;;20569643;28;20038;-42
2024/02/15 22:59:54;;;;;;;3.93;1.90;;;13.70;1.00;;;;;;20561952;28;20129;-42
2024/02/15 23:09:54;;;;;;;5.03;2.35;;;13.50;1.00;;;;;;20573697;28;21368;-42
2024/02/15 23:19:56;;;;;;;4.53;2.30;;;13.40;1.00;;;;;;20562838;28;20039;-42
2024/02/15 23:29:57;;;;;;;5.65;2.80;;;13.30;1.00;;;;;;20558748;28;20062;-42
2024/02/15 23:50:18;;;;;;;6.88;2.47;;;13.10;1.00;;;;;;20564327;28;20149;-42
